Data for 03/27/2006

Time Sea-Level Adjusted Pressure Absolute Pressure Temperature Relative Humidity Dew Point   
(mb) (inHg) (mb) (inHg) (C) (F) (%) (C) (F)
00:05 1021 30.15 850 25.1 -3.5 25.7 59 -10.4 13.4
00:10 1021 30.15 850 25.1 -3.6 25.5 58 -10.8 12.6
00:15 1021 30.15 850 25.1 -3.4 25.9 58 -10.6 12.9
00:20 1021 30.15 850 25.1 -3.2 26.2 56 -10.9 12.5
00:25 1021 30.15 850 25.1 -3.2 26.3 58 -10.4 13.3
00:30 1021 30.15 850 25.1 -3.4 25.9 60 -10.2 13.7
00:35 1021 30.15 850 25.1 -3.6 25.5 61 -10.1 13.8
00:40 1021 30.15 850 25.1 -3.6 25.5 60 -10.4 13.3
00:45 1021 30.15 850 25.1 -3.5 25.6 60 -10.2 13.7
00:50 1021 30.15 850 25.1 -3.6 25.4 61 -10.1 13.9
00:55 1021 30.15 850 25.1 -3.7 25.4 60 -10.3 13.5
01:00 1021 30.15 850 25.1 -3.5 25.8 59 -10.4 13.3
01:05 1021 30.15 850 25.1 -3.4 25.8 59 -10.4 13.2
01:10 1021 30.15 850 25.1 -3.6 25.6 59 -10.4 13.2
01:15 1021 30.15 850 25.1 -3.9 25 64 -9.8 14.4
01:20 1021 30.15 850 25.1 -4.3 24.2 62 -10.6 12.9
01:25 1021 30.15 850 25.1 -4 24.8 61 -10.4 13.3
01:30 1021 30.15 850 25.1 -3.9 25 61 -10.3 13.4
01:35 1021 30.15 850 25.1 -4 24.9 63 -10.1 13.9
01:40 1021 30.15 850 25.1 -4 24.7 63 -10.2 13.7
01:45 1021 30.15 850 25.1 -4.1 24.7 62 -10.3 13.5
01:50 1021 30.15 850 25.1 -4.1 24.7 63 -10.2 13.7
01:55 1021 30.15 850 25.1 -4.1 24.6 63 -10.2 13.7
02:00 1021 30.15 850 25.1 -4.2 24.5 63 -10.1 13.8
02:05 1021 30.15 850 25.1 -4.2 24.4 64 -10.1 13.9
02:10 1021 30.15 850 25.1 -4.2 24.5 63 -10.3 13.5
02:15 1021 30.15 850 25.1 -4.1 24.6 62 -10.3 13.5
02:20 1021 30.15 850 25.1 -4.2 24.4 63 -10.3 13.5
02:25 1021 30.15 850 25.1 -4.3 24.2 64 -10.2 13.7
02:30 1021 30.15 850 25.1 -4.4 24.1 64 -10.2 13.6
02:35 1021 30.15 850 25.1 -4.5 23.9 64 -10.4 13.3
02:40 1021 30.15 850 25.1 -4.5 23.9 64 -10.3 13.5
02:45 1021 30.15 850 25.1 -4.8 23.4 65 -10.3 13.5
02:50 1021 30.15 850 25.1 -4.8 23.4 65 -10.4 13.3
02:55 1021 30.15 850 25.1 -4.7 23.5 65 -10.3 13.4
03:00 1021 30.15 850 25.1 -4.8 23.3 66 -10.3 13.4
03:05 1020 30.12 850 25.1 -5 23.1 68 -10.1 13.9
03:10 1020 30.12 850 25.1 -5.6 21.9 71 -10.1 13.8
03:15 1020 30.12 850 25.1 -5.7 21.7 71 -10.3 13.5
03:20 1020 30.12 850 25.1 -5.8 21.6 71 -10.2 13.7
03:25 1020 30.12 850 25.1 -5.9 21.4 72 -10.2 13.7
03:30 1020 30.12 850 25.1 -5.9 21.3 71 -10.4 13.4
03:35 1020 30.12 850 25.1 -5.7 21.7 70 -10.4 13.3
03:40 1020 30.12 850 25.1 -5.5 22.1 69 -10.4 13.3
03:45 1020 30.12 850 25.1 -5.4 22.2 69 -10.3 13.5
03:50 1020 30.12 850 25.1 -5.5 22.1 69 -10.3 13.4
03:55 1020 30.12 850 25.1 -5.6 21.9 70 -10.3 13.4
04:00 1020 30.12 850 25.1 -5.8 21.6 70 -10.4 13.3
04:05 1020 30.12 850 25.1 -5.8 21.6 70 -10.4 13.2
04:10 1020 30.12 850 25.1 -5.7 21.8 69 -10.5 13.2
04:15 1020 30.12 850 25.1 -5.7 21.8 69 -10.5 13.1
04:20 1020 30.12 850 25.1 -5.6 22 69 -10.4 13.2
04:25 1020 30.12 849 25.07 -5.7 21.8 69 -10.6 13
04:30 1020 30.12 849 25.07 -5.9 21.4 69 -10.7 12.8
04:35 1020 30.12 849 25.07 -6 21.1 70 -10.6 13
04:40 1020 30.12 849 25.07 -6.2 20.8 71 -10.6 12.9
04:45 1020 30.12 849 25.07 -6.3 20.7 71 -10.7 12.7
04:50 1020 30.12 849 25.07 -6.4 20.5 70 -11 12.3
04:55 1020 30.12 849 25.07 -6.4 20.5 69 -11.3 11.7
05:00 1020 30.12 849 25.07 -6.4 20.4 70 -11.1 12.1
05:05 1020 30.12 849 25.07 -7 19.4 72 -11.2 11.9
05:10 1020 30.12 849 25.07 -7.1 19.2 73 -11.1 12
05:15 1020 30.12 849 25.07 -7.1 19.3 74 -11 12.2
05:20 1020 30.12 849 25.07 -7 19.4 74 -10.9 12.3
05:25 1020 30.12 849 25.07 -7 19.4 74 -10.9 12.3
05:30 1020 30.12 849 25.07 -6.9 19.6 73 -11 12.3
05:35 1020 30.12 849 25.07 -6.8 19.8 73 -10.9 12.4
05:40 1020 30.12 849 25.07 -6.8 19.8 72 -11 12.3
05:45 1020 30.12 849 25.07 -6.8 19.8 72 -11.1 12.1
05:50 1020 30.12 849 25.07 -6.8 19.8 72 -11 12.2
05:55 1020 30.12 849 25.07 -6.9 19.5 72 -11.1 11.9
06:00 1020 30.12 849 25.07 -7.1 19.2 72 -11.3 11.6
06:05 1020 30.12 849 25.07 -7.3 18.9 73 -11.4 11.5
06:10 1020 30.12 849 25.07 -7.2 19.1 72 -11.4 11.6
06:15 1020 30.12 849 25.07 -7.3 18.9 73 -11.4 11.6
06:20 1020 30.12 849 25.07 -7.3 18.8 73 -11.4 11.5
06:25 1020 30.12 849 25.07 -7.3 18.9 72 -11.4 11.4
06:30 1020 30.12 849 25.07 -7.1 19.3 71 -11.5 11.4
06:35 1020 30.12 849 25.07 -6.6 20.1 69 -11.4 11.5
06:40 1020 30.12 849 25.07 -6.4 20.5 68 -11.3 11.6
06:45 1020 30.12 849 25.07 -6.3 20.7 68 -11.2 11.8
06:50 1020 30.12 849 25.07 -6.3 20.7 67 -11.4 11.5
06:55 1020 30.12 849 25.07 -6.1 20.9 66 -11.4 11.5
07:00 1020 30.12 849 25.07 -6 21.3 66 -11.3 11.7
07:05 1020 30.12 849 25.07 -5.9 21.3 66 -11.3 11.7
07:10 1020 30.12 849 25.07 -5.9 21.3 66 -11.4 11.5
07:15 1020 30.12 849 25.07 -5.9 21.4 65 -11.4 11.5
07:20 1020 30.12 849 25.07 -5.7 21.7 65 -11.4 11.6
07:25 1020 30.12 849 25.07 -5.2 22.6 63 -11.3 11.7
07:30 1020 30.12 849 25.07 -4.9 23.1 62 -11.2 11.9
07:35 1020 30.12 849 25.07 -4.6 23.7 61 -11 12.2
07:40 1020 30.12 849 25.07 -4.3 24.2 59 -11.1 12.1
07:45 1020 30.12 849 25.07 -4.4 24.2 61 -10.9 12.4
07:50 1020 30.12 849 25.07 -4.1 24.7 59 -10.8 12.5
07:55 1020 30.12 849 25.07 -3.8 25.2 58 -10.8 12.6
08:00 1020 30.12 849 25.07 -3.4 25.8 57 -10.7 12.8
08:05 1020 30.12 849 25.07 -3.2 26.2 57 -10.5 13.1
08:10 1020 30.12 849 25.07 -3.4 25.9 57 -10.6 12.9
08:15 1020 30.12 849 25.07 -2.7 27.1 55 -10.7 12.8
08:20 1020 30.12 849 25.07 -2.6 27.3 55 -10.5 13.1
08:25 1020 30.12 849 25.07 -2.2 28.1 53 -10.4 13.2
08:30 1020 30.12 849 25.07 -1.7 29 52 -10.4 13.3
08:35 1020 30.12 849 25.07 -1.4 29.4 50 -10.4 13.2
08:40 1020 30.12 849 25.07 -1.4 29.6 50 -10.4 13.3
08:45 1020 30.12 849 25.07 -1.2 29.8 50 -10.4 13.3
08:50 1020 30.12 849 25.07 -0.6 30.9 48 -10.2 13.6
08:55 1020 30.12 849 25.07 -0.2 31.7 50 -9.5 14.9
09:00 1020 30.12 849 25.07 0.2 32.4 47 -9.9 14.2
09:05 1020 30.12 849 25.07 0.2 32.3 48 -9.6 14.8
09:10 1020 30.12 849 25.07 0.5 32.9 45 -10.1 13.7
09:15 1020 30.12 849 25.07 0.1 32.2 48 -9.6 14.6
09:20 1020 30.12 849 25.07 -0 32 49 -9.5 14.9
09:25 1020 30.12 849 25.07 0.7 33.3 46 -9.5 14.9
09:30 1020 30.12 849 25.07 1.7 35 47 -8.6 16.6
09:35 1020 30.12 849 25.07 1.7 35.1 44 -9.4 15
09:40 1020 30.12 849 25.07 1.6 34.9 41 -10.2 13.6
09:45 1020 30.12 849 25.07 1.4 34.6 43 -9.8 14.3
09:50 1019 30.09 849 25.07 1.9 35.4 42 -9.6 14.8
09:55 1019 30.09 849 25.07 2.3 36.2 42 -9.4 15
10:00 1019 30.09 849 25.07 2.4 36.4 41 -9.5 14.9
10:05 1019 30.09 849 25.07 2.3 36.2 43 -8.9 16
10:10 1019 30.09 848 25.04 3.1 37.6 41 -8.8 16.2
10:15 1019 30.09 848 25.04 3.6 38.4 39 -9.3 15.3
10:20 1019 30.09 848 25.04 4.3 39.7 42 -7.6 18.2
10:25 1019 30.09 848 25.04 4.1 39.4 45 -6.7 19.9
10:30 1019 30.09 848 25.04 4.1 39.3 42 -7.8 17.9
10:35 1019 30.09 848 25.04 4.1 39.4 43 -7.5 18.5
10:40 1019 30.09 848 25.04 3.8 38.9 44 -7.5 18.6
10:45 1019 30.09 848 25.04 3.6 38.5 43 -7.7 18.1
10:50 1019 30.09 848 25.04 3.8 38.8 44 -7.5 18.4
10:55 1019 30.09 848 25.04 3.6 38.4 43 -7.7 18.1
11:00 1019 30.09 848 25.04 4.5 40.1 40 -7.9 17.9
11:05 1019 30.09 848 25.04 4.4 39.9 43 -7.2 19
11:10 1019 30.09 848 25.04 4.3 39.8 43 -7.3 18.9
11:15 1019 30.09 848 25.04 3.7 38.6 43 -7.6 18.3
11:20 1019 30.09 848 25.04 3.7 38.7 44 -7.6 18.4
11:25 1019 30.09 848 25.04 3.2 37.8 48 -6.7 20
11:30 1019 30.09 848 25.04 3.2 37.8 50 -6.2 20.9
11:35 1018 30.06 848 25.04 4.9 40.8 48 -5.2 22.6
11:40 1018 30.06 847 25.01 5.4 41.8 48 -4.8 23.4
11:45 1018 30.06 847 25.01 5.1 41.2 45 -5.8 21.6
11:50 1018 30.06 847 25.01 4.6 40.3 46 -6.1 21.1
11:55 1018 30.06 847 25.01 4.7 40.5 46 -5.9 21.3
12:00 1018 30.06 847 25.01 5.6 42.1 43 -6.1 21
12:05 1018 30.06 847 25.01 5.7 42.3 41 -6.6 20.1
12:10 1018 30.06 847 25.01 6 42.8 41 -6.3 20.7
12:15 1018 30.06 847 25.01 6.7 44.1 38 -6.5 20.3
12:20 1018 30.06 847 25.01 6.3 43.4 42 -5.5 22.1
12:25 1018 30.06 847 25.01 6.7 44 38 -6.8 19.8
12:30 1017 30.03 847 25.01 7.1 44.8 41 -5.2 22.6
12:35 1017 30.03 847 25.01 7.2 44.9 44 -4.4 24.2
12:40 1017 30.03 847 25.01 6.6 43.8 41 -5.9 21.4
12:45 1017 30.03 846 24.98 6.5 43.6 39 -6.6 20.2
12:50 1017 30.03 846 24.98 6.7 44.1 40 -6.1 21.1
12:55 1017 30.03 846 24.98 6.6 44 40 -6.1 21
13:00 1017 30.03 846 24.98 6.6 43.8 40 -6 21.2
13:05 1017 30.03 846 24.98 7.3 45.1 40 -5.4 22.3
13:10 1017 30.03 846 24.98 7.8 46.1 40 -4.8 23.3
13:15 1017 30.03 846 24.98 8.6 47.4 36 -5.7 21.7
13:20 1017 30.03 846 24.98 7.7 45.8 39 -5.5 22.2
13:25 1017 30.03 846 24.98 8 46.3 35 -6.4 20.4
13:30 1017 30.03 846 24.98 8 46.3 40 -4.8 23.4
13:35 1017 30.03 846 24.98 8.3 46.9 35 -6.1 21
13:40 1016 30 846 24.98 8.2 46.8 36 -6 21.2
13:45 1016 30 846 24.98 7.6 45.7 40 -5.1 22.8
13:50 1016 30 846 24.98 8 46.5 40 -4.7 23.5
13:55 1016 30 845 24.95 7.8 46 43 -3.9 24.9
14:00 1016 30 845 24.95 8.1 46.5 40 -4.8 23.3
14:05 1016 30 845 24.95 8 46.3 39 -5.3 22.5
14:10 1016 30 845 24.95 8.6 47.4 37 -5.1 22.8
14:15 1016 30 845 24.95 8.8 47.8 42 -3.6 25.6
14:20 1016 30 845 24.95 8.5 47.3 44 -3 26.5
14:25 1016 30 845 24.95 9 48.2 44 -2.5 27.6
14:30 1016 30 845 24.95 9.2 48.5 35 -5.3 22.4
14:35 1016 30 845 24.95 9.3 48.7 33 -6.2 20.8
14:40 1016 30 845 24.95 8.9 48 34 -6.2 20.9
14:45 1016 30 845 24.95 8.8 47.8 33 -6.6 20.2
14:50 1016 30 845 24.95 9.7 49.4 33 -5.9 21.4
14:55 1016 30 845 24.95 10.3 50.5 31 -5.9 21.3
15:00 1016 30 845 24.95 10.6 51 33 -4.9 23.2
15:05 1015 29.97 845 24.95 10.8 51.4 37 -3.3 26.1
15:10 1015 29.97 845 24.95 10.5 50.8 38 -3.3 26
15:15 1015 29.97 845 24.95 9.4 48.9 43 -2.7 27.2
15:20 1015 29.97 845 24.95 9.2 48.5 40 -3.7 25.4
15:25 1015 29.97 844 24.92 9.1 48.4 39 -4.1 24.6
15:30 1015 29.97 844 24.92 10 50 37 -3.9 24.9
15:35 1015 29.97 844 24.92 10.8 51.4 36 -3.8 25.1
15:40 1015 29.97 844 24.92 10.5 50.9 38 -3.3 26
15:45 1015 29.97 844 24.92 10.1 50.2 39 -3.4 25.9
15:50 1015 29.97 844 24.92 10.7 51.2 33 -4.8 23.3
15:55 1015 29.97 844 24.92 11.3 52.3 31 -5.2 22.6
16:00 1015 29.97 844 24.92 10.5 50.9 38 -3.2 26.2
16:05 1015 29.97 844 24.92 10.9 51.6 33 -4.7 23.6
16:10 1015 29.97 844 24.92 11.2 52.1 39 -2.2 28
16:15 1015 29.97 844 24.92 10.2 50.4 40 -2.9 26.8
16:20 1015 29.97 844 24.92 9.7 49.5 38 -3.9 24.9
16:25 1015 29.97 844 24.92 10.2 50.4 37 -3.7 25.3
16:30 1015 29.97 844 24.92 9.2 48.6 41 -3.3 26.1
16:35 1015 29.97 844 24.92 9.2 48.6 39 -3.9 24.9
16:40 1015 29.97 844 24.92 9.5 49 39 -3.9 24.9
16:45 1015 29.97 844 24.92 9.4 49 38 -4.1 24.7
16:50 1015 29.97 844 24.92 9.4 48.9 40 -3.6 25.6
16:55 1015 29.97 844 24.92 9.2 48.6 39 -3.9 25
17:00 1015 29.97 844 24.92 9.5 49 38 -4.2 24.5
17:05 1014 29.94 844 24.92 9.4 49 38 -4.3 24.3
17:10 1014 29.94 844 24.92 9.8 49.6 36 -4.5 23.9
17:15 1014 29.94 844 24.92 9.8 49.7 38 -3.6 25.5
17:20 1014 29.94 844 24.92 9.7 49.5 37 -4.2 24.4
17:25 1014 29.94 844 24.92 9.4 48.8 38 -4.2 24.5
17:30 1014 29.94 844 24.92 8.6 47.4 40 -4.1 24.6
17:35 1014 29.94 844 24.92 8.2 46.8 41 -4.2 24.4
17:40 1014 29.94 843 24.89 8.2 46.8 41 -4.2 24.4
17:45 1014 29.94 843 24.89 8.2 46.7 41 -4.3 24.3
17:50 1014 29.94 843 24.89 7.6 45.7 43 -4.1 24.6
17:55 1014 29.94 843 24.89 7.6 45.6 43 -4.2 24.5
18:00 1014 29.94 843 24.89 7.5 45.5 43 -4.2 24.5
18:05 1014 29.94 843 24.89 7.3 45.2 44 -4 24.8
18:10 1014 29.94 843 24.89 7 44.5 45 -4.2 24.5
18:15 1014 29.94 843 24.89 6.7 44.1 45 -4.4 24
18:20 1014 29.94 843 24.89 6.5 43.7 46 -4.4 24
18:25 1014 29.94 843 24.89 6.3 43.4 46 -4.4 24.1
18:30 1014 29.94 843 24.89 6.2 43.1 48 -4.1 24.7
18:35 1014 29.94 843 24.89 5.9 42.6 49 -4.1 24.7
18:40 1014 29.94 843 24.89 5.8 42.5 49 -3.9 24.9
18:45 1014 29.94 843 24.89 5.6 42.1 52 -3.5 25.7
18:50 1014 29.94 843 24.89 5.4 41.7 52 -3.8 25.1
18:55 1014 29.94 843 24.89 5.3 41.6 53 -3.5 25.7
19:00 1014 29.94 843 24.89 5.2 41.4 53 -3.5 25.7
19:05 1014 29.94 843 24.89 4.8 40.6 56 -3.2 26.2
19:10 1014 29.94 843 24.89 4.6 40.2 56 -3.5 25.7
19:15 1014 29.94 843 24.89 4.7 40.4 53 -4 24.7
19:20 1014 29.94 843 24.89 4.8 40.7 55 -3.4 26
19:25 1014 29.94 843 24.89 4.7 40.4 56 -3.4 25.8
19:30 1014 29.94 843 24.89 4.5 40.1 56 -3.5 25.8
19:35 1014 29.94 843 24.89 4.3 39.7 57 -3.4 25.8
19:40 1014 29.94 843 24.89 3.9 39.1 61 -3 26.6
19:45 1014 29.94 843 24.89 3.8 38.8 60 -3.2 26.3
19:50 1014 29.94 843 24.89 4 39.2 58 -3.6 25.6
19:55 1014 29.94 843 24.89 4.1 39.4 57 -3.7 25.3
20:00 1014 29.94 843 24.89 4 39.2 58 -3.5 25.6
20:05 1014 29.94 843 24.89 3.7 38.6 58 -3.8 25.1
20:10 1014 29.94 843 24.89 3.7 38.7 56 -4.3 24.3
20:15 1013 29.91 843 24.89 3.9 39 55 -4.4 24.2
20:20 1013 29.91 843 24.89 3.5 38.4 57 -4.2 24.4
20:25 1013 29.91 843 24.89 3.6 38.4 55 -4.7 23.6
20:30 1013 29.91 843 24.89 3.9 38.9 52 -5.2 22.7
20:35 1013 29.91 843 24.89 4.1 39.4 50 -5.3 22.4
20:40 1013 29.91 843 24.89 4.3 39.8 48 -5.7 21.7
20:45 1013 29.91 843 24.89 4.3 39.7 45 -6.5 20.3
20:50 1013 29.91 843 24.89 4.7 40.4 44 -6.7 20
20:55 1013 29.91 843 24.89 4.4 39.9 45 -6.5 20.3
21:00 1013 29.91 842 24.86 4.5 40.1 48 -5.6 21.9
21:05 1013 29.91 842 24.86 3.9 38.9 49 -6 21.1
21:10 1013 29.91 842 24.86 3.7 38.7 47 -6.7 20
21:15 1013 29.91 842 24.86 3.7 38.7 47 -6.7 20
21:20 1013 29.91 842 24.86 3.9 39 46 -6.6 20
21:25 1013 29.91 842 24.86 3.9 38.9 44 -7.4 18.7
21:30 1013 29.91 842 24.86 4 39.1 42 -7.8 18
21:35 1013 29.91 842 24.86 4.3 39.8 41 -7.7 18.2
21:40 1013 29.91 842 24.86 4.2 39.6 41 -8 17.7
21:45 1013 29.91 842 24.86 4.2 39.6 41 -7.9 17.7
21:50 1013 29.91 842 24.86 4.2 39.6 40 -8.2 17.2
21:55 1013 29.91 842 24.86 4.5 40 38 -8.6 16.6
22:00 1013 29.91 842 24.86 4.3 39.7 38 -8.8 16.2
22:05 1013 29.91 842 24.86 4.2 39.5 43 -7.3 18.8
22:10 1013 29.91 842 24.86 3.4 38.2 41 -8.6 16.4
22:15 1013 29.91 842 24.86 4 39.2 38 -9.1 15.6
22:20 1013 29.91 842 24.86 4.5 40 37 -9.1 15.7
22:25 1013 29.91 842 24.86 4.1 39.4 39 -8.5 16.7
22:30 1013 29.91 842 24.86 3.3 37.9 44 -8 17.7
22:35 1013 29.91 842 24.86 3 37.4 45 -7.9 17.8
22:40 1013 29.91 842 24.86 2.9 37.2 44 -8.3 17.1
22:45 1013 29.91 842 24.86 3 37.4 42 -8.8 16.2
22:50 1013 29.91 842 24.86 3.2 37.8 43 -8.1 17.4
22:55 1013 29.91 842 24.86 3.1 37.6 42 -8.7 16.4
23:00 1013 29.91 842 24.86 3.1 37.6 41 -8.8 16.1
23:05 1013 29.91 842 24.86 3.1 37.6 42 -8.7 16.4
23:10 1013 29.91 842 24.86 3.3 38 45 -7.6 18.4
23:15 1013 29.91 842 24.86 3.1 37.7 45 -7.5 18.4
23:20 1013 29.91 842 24.86 3 37.5 45 -7.8 18
23:25 1013 29.91 842 24.86 2.7 36.9 44 -8.4 16.8
23:30 1013 29.91 842 24.86 2.3 36.2 43 -8.9 16.1
23:35 1013 29.91 842 24.86 2.4 36.4 47 -7.8 18
23:40 1013 29.91 842 24.86 2.1 35.7 45 -8.7 16.3
23:45 1013 29.91 842 24.86 2.3 36.2 43 -9.1 15.6
23:50 1013 29.91 842 24.86 2.6 36.6 42 -9.2 15.5
23:55 1013 29.91 842 24.86 2.7 36.8 42 -9 15.8
24:00 1013 29.91 842 24.86 2.2 36 42 -9.4 15.2